sensor_id;sensor_type;location;lat;lon;timestamp;P1;durP1;ratioP1;P2;durP2;ratioP2
76978;SDS011;65911;47.502;19.148;2023-03-01T00:01:31;20.05;;;10.20;;
76978;SDS011;65911;47.502;19.148;2023-03-01T00:04:33;18.80;;;11.10;;
76978;SDS011;65911;47.502;19.148;2023-03-01T00:07:37;19.52;;;11.10;;
76978;SDS011;65911;47.502;19.148;2023-03-01T00:10:39;22.10;;;10.60;;
76978;SDS011;65911;47.502;19.148;2023-03-01T00:13:42;20.70;;;11.25;;
76978;SDS011;65911;47.502;19.148;2023-03-01T00:16:45;22.08;;;10.57;;
76978;SDS011;65911;47.502;19.148;2023-03-01T00:19:48;17.47;;;10.20;;
76978;SDS011;65911;47.502;19.148;2023-03-01T00:22:50;19.10;;;10.80;;
76978;SDS011;65911;47.502;19.148;2023-03-01T00:25:52;19.70;;;10.32;;
76978;SDS011;65911;47.502;19.148;2023-03-01T00:28:56;18.38;;;10.65;;
76978;SDS011;65911;47.502;19.148;2023-03-01T00:31:59;17.70;;;10.55;;
76978;SDS011;65911;47.502;19.148;2023-03-01T00:35:01;21.92;;;11.23;;
76978;SDS011;65911;47.502;19.148;2023-03-01T00:38:03;18.33;;;10.63;;
76978;SDS011;65911;47.502;19.148;2023-03-01T00:41:06;16.37;;;10.57;;
76978;SDS011;65911;47.502;19.148;2023-03-01T00:44:11;18.98;;;10.73;;
76978;SDS011;65911;47.502;19.148;2023-03-01T00:47:13;18.35;;;10.38;;
76978;SDS011;65911;47.502;19.148;2023-03-01T00:50:15;16.43;;;9.90;;
76978;SDS011;65911;47.502;19.148;2023-03-01T00:53:18;17.25;;;9.63;;
76978;SDS011;65911;47.502;19.148;2023-03-01T00:56:20;18.58;;;10.30;;
76978;SDS011;65911;47.502;19.148;2023-03-01T00:59:23;16.50;;;10.00;;
76978;SDS011;65911;47.502;19.148;2023-03-01T01:02:25;18.08;;;10.10;;
76978;SDS011;65911;47.502;19.148;2023-03-01T01:05:27;15.75;;;9.35;;
76978;SDS011;65911;47.502;19.148;2023-03-01T01:08:30;16.05;;;9.20;;
76978;SDS011;65911;47.502;19.148;2023-03-01T01:11:32;14.03;;;8.70;;
76978;SDS011;65911;47.502;19.148;2023-03-01T01:14:35;16.67;;;8.98;;
76978;SDS011;65911;47.502;19.148;2023-03-01T01:17:37;16.98;;;9.02;;
76978;SDS011;65911;47.502;19.148;2023-03-01T01:20:40;21.17;;;10.27;;
76978;SDS011;65911;47.502;19.148;2023-03-01T01:23:42;16.73;;;9.57;;
76978;SDS011;65911;47.502;19.148;2023-03-01T01:26:46;18.73;;;10.20;;
76978;SDS011;65911;47.502;19.148;2023-03-01T01:29:48;16.52;;;9.88;;
76978;SDS011;65911;47.502;19.148;2023-03-01T01:32:51;17.27;;;9.68;;
76978;SDS011;65911;47.502;19.148;2023-03-01T01:35:53;17.75;;;10.60;;
76978;SDS011;65911;47.502;19.148;2023-03-01T01:38:55;17.08;;;9.77;;
76978;SDS011;65911;47.502;19.148;2023-03-01T01:41:58;15.87;;;9.77;;
76978;SDS011;65911;47.502;19.148;2023-03-01T01:48:41;15.35;;;9.77;;
76978;SDS011;65911;47.502;19.148;2023-03-01T01:51:45;16.90;;;9.73;;
76978;SDS011;65911;47.502;19.148;2023-03-01T01:54:57;17.10;;;9.68;;
76978;SDS011;65911;47.502;19.148;2023-03-01T01:58:02;15.90;;;10.07;;
76978;SDS011;65911;47.502;19.148;2023-03-01T02:01:07;15.85;;;9.95;;
76978;SDS011;65911;47.502;19.148;2023-03-01T02:04:09;17.42;;;9.70;;
76978;SDS011;65911;47.502;19.148;2023-03-01T02:07:20;14.63;;;9.57;;
76978;SDS011;65911;47.502;19.148;2023-03-01T02:10:24;18.55;;;9.73;;
76978;SDS011;65911;47.502;19.148;2023-03-01T02:13:27;14.80;;;8.97;;
76978;SDS011;65911;47.502;19.148;2023-03-01T02:16:29;15.98;;;9.90;;
76978;SDS011;65911;47.502;19.148;2023-03-01T02:22:38;14.80;;;9.53;;
76978;SDS011;65911;47.502;19.148;2023-03-01T02:25:47;16.00;;;9.45;;
76978;SDS011;65911;47.502;19.148;2023-03-01T02:28:53;13.52;;;8.68;;
76978;SDS011;65911;47.502;19.148;2023-03-01T02:31:56;16.35;;;9.48;;
76978;SDS011;65911;47.502;19.148;2023-03-01T02:35:00;15.18;;;8.68;;
76978;SDS011;65911;47.502;19.148;2023-03-01T02:38:03;14.48;;;9.10;;
76978;SDS011;65911;47.502;19.148;2023-03-01T02:41:08;15.77;;;8.88;;
76978;SDS011;65911;47.502;19.148;2023-03-01T02:44:13;14.40;;;8.43;;
76978;SDS011;65911;47.502;19.148;2023-03-01T02:47:15;15.93;;;9.43;;
76978;SDS011;65911;47.502;19.148;2023-03-01T02:57:21;15.85;;;9.07;;
76978;SDS011;65911;47.502;19.148;2023-03-01T03:00:26;13.32;;;8.45;;
76978;SDS011;65911;47.502;19.148;2023-03-01T03:03:32;14.45;;;9.20;;
76978;SDS011;65911;47.502;19.148;2023-03-01T03:06:34;15.20;;;8.90;;
76978;SDS011;65911;47.502;19.148;2023-03-01T03:09:36;15.60;;;9.30;;
76978;SDS011;65911;47.502;19.148;2023-03-01T03:12:38;14.88;;;8.88;;
76978;SDS011;65911;47.502;19.148;2023-03-01T03:15:42;15.40;;;8.63;;
76978;SDS011;65911;47.502;19.148;2023-03-01T03:18:45;14.95;;;8.85;;
76978;SDS011;65911;47.502;19.148;2023-03-01T03:21:47;13.57;;;8.20;;
76978;SDS011;65911;47.502;19.148;2023-03-01T03:24:51;14.70;;;8.07;;
76978;SDS011;65911;47.502;19.148;2023-03-01T03:27:53;15.55;;;9.00;;
76978;SDS011;65911;47.502;19.148;2023-03-01T03:30:59;15.70;;;8.07;;
76978;SDS011;65911;47.502;19.148;2023-03-01T03:34:05;15.48;;;9.32;;
76978;SDS011;65911;47.502;19.148;2023-03-01T03:37:07;14.27;;;9.02;;
76978;SDS011;65911;47.502;19.148;2023-03-01T03:40:34;13.52;;;8.52;;
76978;SDS011;65911;47.502;19.148;2023-03-01T03:43:57;15.63;;;8.48;;
76978;SDS011;65911;47.502;19.148;2023-03-01T03:46:59;13.87;;;8.40;;
76978;SDS011;65911;47.502;19.148;2023-03-01T03:50:01;15.85;;;8.40;;
76978;SDS011;65911;47.502;19.148;2023-03-01T03:53:04;14.57;;;8.18;;
76978;SDS011;65911;47.502;19.148;2023-03-01T03:56:13;14.60;;;8.80;;
76978;SDS011;65911;47.502;19.148;2023-03-01T03:59:16;14.07;;;8.95;;
76978;SDS011;65911;47.502;19.148;2023-03-01T04:02:18;14.80;;;8.23;;
76978;SDS011;65911;47.502;19.148;2023-03-01T04:05:24;14.32;;;8.60;;
76978;SDS011;65911;47.502;19.148;2023-03-01T04:08:26;13.73;;;8.27;;
76978;SDS011;65911;47.502;19.148;2023-03-01T04:11:29;16.45;;;9.18;;
76978;SDS011;65911;47.502;19.148;2023-03-01T04:14:31;15.05;;;8.73;;
76978;SDS011;65911;47.502;19.148;2023-03-01T04:17:34;14.03;;;8.40;;
76978;SDS011;65911;47.502;19.148;2023-03-01T04:20:36;13.63;;;8.48;;
76978;SDS011;65911;47.502;19.148;2023-03-01T04:23:38;14.15;;;8.63;;
76978;SDS011;65911;47.502;19.148;2023-03-01T04:26:42;12.67;;;8.27;;
76978;SDS011;65911;47.502;19.148;2023-03-01T04:29:45;14.15;;;8.30;;
76978;SDS011;65911;47.502;19.148;2023-03-01T04:32:47;16.42;;;8.48;;
76978;SDS011;65911;47.502;19.148;2023-03-01T04:35:49;13.32;;;7.70;;
76978;SDS011;65911;47.502;19.148;2023-03-01T04:38:51;13.40;;;8.30;;
76978;SDS011;65911;47.502;19.148;2023-03-01T04:41:54;14.32;;;8.38;;
76978;SDS011;65911;47.502;19.148;2023-03-01T04:44:56;13.55;;;8.23;;
76978;SDS011;65911;47.502;19.148;2023-03-01T04:47:58;13.30;;;7.93;;
76978;SDS011;65911;47.502;19.148;2023-03-01T04:51:01;15.43;;;8.30;;
76978;SDS011;65911;47.502;19.148;2023-03-01T04:54:04;12.18;;;7.63;;
76978;SDS011;65911;47.502;19.148;2023-03-01T04:57:10;13.33;;;7.83;;
76978;SDS011;65911;47.502;19.148;2023-03-01T05:00:13;13.82;;;7.95;;
76978;SDS011;65911;47.502;19.148;2023-03-01T05:03:24;12.52;;;7.43;;
76978;SDS011;65911;47.502;19.148;2023-03-01T05:06:26;12.30;;;7.50;;
76978;SDS011;65911;47.502;19.148;2023-03-01T05:09:30;12.15;;;7.43;;
76978;SDS011;65911;47.502;19.148;2023-03-01T05:12:32;11.90;;;7.38;;
76978;SDS011;65911;47.502;19.148;2023-03-01T05:15:34;10.80;;;7.38;;
76978;SDS011;65911;47.502;19.148;2023-03-01T05:18:38;12.27;;;7.20;;
76978;SDS011;65911;47.502;19.148;2023-03-01T05:21:42;12.05;;;6.85;;
76978;SDS011;65911;47.502;19.148;2023-03-01T05:25:03;11.80;;;7.00;;
76978;SDS011;65911;47.502;19.148;2023-03-01T05:28:07;10.17;;;6.37;;
76978;SDS011;65911;47.502;19.148;2023-03-01T05:31:12;9.82;;;6.30;;
76978;SDS011;65911;47.502;19.148;2023-03-01T05:34:15;9.63;;;6.22;;
76978;SDS011;65911;47.502;19.148;2023-03-01T05:37:17;44.80;;;7.15;;
76978;SDS011;65911;47.502;19.148;2023-03-01T05:40:21;14.98;;;5.90;;
76978;SDS011;65911;47.502;19.148;2023-03-01T05:43:25;10.57;;;6.03;;
76978;SDS011;65911;47.502;19.148;2023-03-01T05:46:28;10.95;;;6.93;;
76978;SDS011;65911;47.502;19.148;2023-03-01T05:49:31;11.60;;;6.83;;
76978;SDS011;65911;47.502;19.148;2023-03-01T05:52:34;9.45;;;6.70;;
76978;SDS011;65911;47.502;19.148;2023-03-01T05:55:36;13.55;;;6.90;;
76978;SDS011;65911;47.502;19.148;2023-03-01T05:58:39;11.60;;;7.03;;
76978;SDS011;65911;47.502;19.148;2023-03-01T06:01:41;11.10;;;6.35;;
76978;SDS011;65911;47.502;19.148;2023-03-01T06:04:44;12.52;;;7.43;;
76978;SDS011;65911;47.502;19.148;2023-03-01T06:07:47;11.32;;;6.95;;
76978;SDS011;65911;47.502;19.148;2023-03-01T06:10:49;11.30;;;6.95;;
76978;SDS011;65911;47.502;19.148;2023-03-01T06:13:51;11.68;;;7.18;;
76978;SDS011;65911;47.502;19.148;2023-03-01T06:16:54;11.70;;;7.00;;
76978;SDS011;65911;47.502;19.148;2023-03-01T06:19:56;11.17;;;7.27;;
76978;SDS011;65911;47.502;19.148;2023-03-01T06:22:58;11.23;;;6.88;;
76978;SDS011;65911;47.502;19.148;2023-03-01T06:26:05;11.32;;;6.78;;
76978;SDS011;65911;47.502;19.148;2023-03-01T06:29:08;12.03;;;7.30;;
76978;SDS011;65911;47.502;19.148;2023-03-01T06:32:10;13.23;;;7.53;;
76978;SDS011;65911;47.502;19.148;2023-03-01T06:35:13;15.10;;;7.38;;
76978;SDS011;65911;47.502;19.148;2023-03-01T06:38:19;11.98;;;7.13;;
76978;SDS011;65911;47.502;19.148;2023-03-01T06:41:21;11.98;;;6.88;;
76978;SDS011;65911;47.502;19.148;2023-03-01T06:44:24;13.45;;;6.80;;
76978;SDS011;65911;47.502;19.148;2023-03-01T06:47:26;12.45;;;6.65;;
76978;SDS011;65911;47.502;19.148;2023-03-01T06:50:29;14.07;;;7.43;;
76978;SDS011;65911;47.502;19.148;2023-03-01T06:53:32;9.35;;;6.43;;
76978;SDS011;65911;47.502;19.148;2023-03-01T06:56:34;11.32;;;6.43;;
76978;SDS011;65911;47.502;19.148;2023-03-01T06:59:37;10.97;;;7.13;;
76978;SDS011;65911;47.502;19.148;2023-03-01T07:02:39;10.52;;;6.38;;
76978;SDS011;65911;47.502;19.148;2023-03-01T07:05:41;12.52;;;7.63;;
76978;SDS011;65911;47.502;19.148;2023-03-01T07:08:46;12.25;;;7.05;;
76978;SDS011;65911;47.502;19.148;2023-03-01T07:11:49;12.43;;;6.78;;
76978;SDS011;65911;47.502;19.148;2023-03-01T07:14:51;10.85;;;7.18;;
76978;SDS011;65911;47.502;19.148;2023-03-01T07:17:54;12.50;;;6.63;;
76978;SDS011;65911;47.502;19.148;2023-03-01T07:20:56;12.87;;;6.87;;
76978;SDS011;65911;47.502;19.148;2023-03-01T07:23:59;11.80;;;6.97;;
76978;SDS011;65911;47.502;19.148;2023-03-01T07:27:01;12.52;;;6.70;;
76978;SDS011;65911;47.502;19.148;2023-03-01T07:30:04;11.10;;;6.83;;
76978;SDS011;65911;47.502;19.148;2023-03-01T07:33:07;11.65;;;6.18;;
76978;SDS011;65911;47.502;19.148;2023-03-01T07:36:10;10.48;;;6.88;;
76978;SDS011;65911;47.502;19.148;2023-03-01T07:39:12;13.70;;;7.40;;
76978;SDS011;65911;47.502;19.148;2023-03-01T07:42:15;11.88;;;6.55;;
76978;SDS011;65911;47.502;19.148;2023-03-01T07:45:17;13.00;;;6.72;;
76978;SDS011;65911;47.502;19.148;2023-03-01T07:48:20;13.68;;;6.53;;
76978;SDS011;65911;47.502;19.148;2023-03-01T07:51:22;11.70;;;6.70;;
76978;SDS011;65911;47.502;19.148;2023-03-01T07:54:25;12.50;;;7.30;;
76978;SDS011;65911;47.502;19.148;2023-03-01T07:57:28;13.18;;;6.80;;
76978;SDS011;65911;47.502;19.148;2023-03-01T08:00:33;11.97;;;6.70;;
76978;SDS011;65911;47.502;19.148;2023-03-01T08:03:36;14.10;;;7.32;;
76978;SDS011;65911;47.502;19.148;2023-03-01T08:06:41;10.68;;;6.65;;
76978;SDS011;65911;47.502;19.148;2023-03-01T08:09:45;12.68;;;7.20;;
76978;SDS011;65911;47.502;19.148;2023-03-01T08:12:50;11.38;;;7.43;;
76978;SDS011;65911;47.502;19.148;2023-03-01T08:15:53;13.00;;;7.15;;
76978;SDS011;65911;47.502;19.148;2023-03-01T08:18:56;12.15;;;6.78;;
76978;SDS011;65911;47.502;19.148;2023-03-01T08:22:05;12.17;;;6.70;;
76978;SDS011;65911;47.502;19.148;2023-03-01T08:25:08;10.60;;;6.90;;
76978;SDS011;65911;47.502;19.148;2023-03-01T08:28:11;13.18;;;6.60;;
76978;SDS011;65911;47.502;19.148;2023-03-01T08:31:21;15.97;;;6.87;;
76978;SDS011;65911;47.502;19.148;2023-03-01T08:34:25;10.20;;;6.85;;
76978;SDS011;65911;47.502;19.148;2023-03-01T08:37:29;12.23;;;6.85;;
76978;SDS011;65911;47.502;19.148;2023-03-01T08:40:34;14.40;;;7.10;;
76978;SDS011;65911;47.502;19.148;2023-03-01T08:43:38;13.07;;;7.20;;
76978;SDS011;65911;47.502;19.148;2023-03-01T08:46:41;10.88;;;7.03;;
76978;SDS011;65911;47.502;19.148;2023-03-01T08:49:44;13.65;;;7.15;;
76978;SDS011;65911;47.502;19.148;2023-03-01T08:52:46;10.97;;;6.83;;
76978;SDS011;65911;47.502;19.148;2023-03-01T08:55:49;15.73;;;6.90;;
76978;SDS011;65911;47.502;19.148;2023-03-01T08:58:51;12.20;;;6.72;;
76978;SDS011;65911;47.502;19.148;2023-03-01T09:01:55;15.53;;;7.33;;
76978;SDS011;65911;47.502;19.148;2023-03-01T09:04:59;13.93;;;6.68;;
76978;SDS011;65911;47.502;19.148;2023-03-01T09:08:01;15.73;;;7.00;;
76978;SDS011;65911;47.502;19.148;2023-03-01T09:11:07;10.40;;;6.35;;
76978;SDS011;65911;47.502;19.148;2023-03-01T09:14:11;10.25;;;5.78;;
76978;SDS011;65911;47.502;19.148;2023-03-01T09:17:17;11.07;;;6.00;;
76978;SDS011;65911;47.502;19.148;2023-03-01T09:20:20;11.18;;;6.13;;
76978;SDS011;65911;47.502;19.148;2023-03-01T09:23:31;9.93;;;5.37;;
76978;SDS011;65911;47.502;19.148;2023-03-01T09:26:34;10.73;;;6.00;;
76978;SDS011;65911;47.502;19.148;2023-03-01T09:29:36;10.30;;;5.68;;
76978;SDS011;65911;47.502;19.148;2023-03-01T09:32:39;9.83;;;5.80;;
76978;SDS011;65911;47.502;19.148;2023-03-01T09:35:44;10.85;;;5.70;;
76978;SDS011;65911;47.502;19.148;2023-03-01T09:38:48;10.20;;;6.22;;
76978;SDS011;65911;47.502;19.148;2023-03-01T09:45:00;10.88;;;5.75;;
76978;SDS011;65911;47.502;19.148;2023-03-01T09:48:09;8.80;;;5.20;;
76978;SDS011;65911;47.502;19.148;2023-03-01T09:51:33;10.30;;;6.05;;
76978;SDS011;65911;47.502;19.148;2023-03-01T09:54:38;8.47;;;5.10;;
76978;SDS011;65911;47.502;19.148;2023-03-01T09:58:04;7.72;;;4.40;;
76978;SDS011;65911;47.502;19.148;2023-03-01T10:08:46;8.88;;;4.70;;
76978;SDS011;65911;47.502;19.148;2023-03-01T10:12:02;8.32;;;4.70;;
76978;SDS011;65911;47.502;19.148;2023-03-01T10:15:11;7.32;;;4.72;;
76978;SDS011;65911;47.502;19.148;2023-03-01T10:18:26;9.77;;;4.55;;
76978;SDS011;65911;47.502;19.148;2023-03-01T10:21:30;11.20;;;4.57;;
76978;SDS011;65911;47.502;19.148;2023-03-01T10:24:36;8.70;;;4.82;;
76978;SDS011;65911;47.502;19.148;2023-03-01T10:30:45;8.85;;;4.60;;
76978;SDS011;65911;47.502;19.148;2023-03-01T10:33:48;8.27;;;4.47;;
76978;SDS011;65911;47.502;19.148;2023-03-01T10:36:56;7.53;;;4.37;;
76978;SDS011;65911;47.502;19.148;2023-03-01T10:43:02;9.30;;;4.70;;
76978;SDS011;65911;47.502;19.148;2023-03-01T10:46:21;7.60;;;4.53;;
76978;SDS011;65911;47.502;19.148;2023-03-01T10:49:32;7.10;;;4.50;;
76978;SDS011;65911;47.502;19.148;2023-03-01T10:52:35;9.40;;;4.75;;
76978;SDS011;65911;47.502;19.148;2023-03-01T10:55:43;7.50;;;4.63;;
76978;SDS011;65911;47.502;19.148;2023-03-01T10:58:57;6.67;;;4.50;;
76978;SDS011;65911;47.502;19.148;2023-03-01T11:05:27;8.20;;;4.63;;
76978;SDS011;65911;47.502;19.148;2023-03-01T11:08:47;7.70;;;4.80;;
76978;SDS011;65911;47.502;19.148;2023-03-01T11:11:53;7.82;;;4.45;;
76978;SDS011;65911;47.502;19.148;2023-03-01T11:14:56;6.30;;;4.57;;
76978;SDS011;65911;47.502;19.148;2023-03-01T11:18:00;8.95;;;4.35;;
76978;SDS011;65911;47.502;19.148;2023-03-01T11:21:15;9.30;;;5.10;;
76978;SDS011;65911;47.502;19.148;2023-03-01T11:24:18;8.35;;;4.70;;
76978;SDS011;65911;47.502;19.148;2023-03-01T11:27:25;7.63;;;5.35;;
76978;SDS011;65911;47.502;19.148;2023-03-01T11:34:21;8.32;;;4.90;;
76978;SDS011;65911;47.502;19.148;2023-03-01T11:37:37;10.98;;;4.35;;
76978;SDS011;65911;47.502;19.148;2023-03-01T11:44:21;8.15;;;4.78;;
76978;SDS011;65911;47.502;19.148;2023-03-01T11:51:12;9.32;;;4.53;;
76978;SDS011;65911;47.502;19.148;2023-03-01T12:18:02;5.75;;;3.80;;
76978;SDS011;65911;47.502;19.148;2023-03-01T12:41:37;9.73;;;4.18;;
76978;SDS011;65911;47.502;19.148;2023-03-01T12:51:44;6.68;;;3.33;;
76978;SDS011;65911;47.502;19.148;2023-03-01T12:55:26;6.68;;;3.10;;
76978;SDS011;65911;47.502;19.148;2023-03-01T13:11:51;6.57;;;3.07;;
76978;SDS011;65911;47.502;19.148;2023-03-01T13:14:54;5.75;;;3.08;;
76978;SDS011;65911;47.502;19.148;2023-03-01T13:17:57;4.80;;;3.08;;
76978;SDS011;65911;47.502;19.148;2023-03-01T13:21:01;7.30;;;2.80;;
76978;SDS011;65911;47.502;19.148;2023-03-01T13:24:04;7.70;;;3.28;;
76978;SDS011;65911;47.502;19.148;2023-03-01T13:27:33;7.28;;;3.47;;
76978;SDS011;65911;47.502;19.148;2023-03-01T13:33:46;5.35;;;3.22;;
76978;SDS011;65911;47.502;19.148;2023-03-01T13:36:52;5.55;;;3.08;;
76978;SDS011;65911;47.502;19.148;2023-03-01T13:39:55;4.88;;;2.88;;
76978;SDS011;65911;47.502;19.148;2023-03-01T13:43:17;6.57;;;3.17;;
76978;SDS011;65911;47.502;19.148;2023-03-01T13:46:30;5.88;;;2.78;;
76978;SDS011;65911;47.502;19.148;2023-03-01T13:49:46;8.43;;;2.85;;
76978;SDS011;65911;47.502;19.148;2023-03-01T13:53:05;4.97;;;2.67;;
76978;SDS011;65911;47.502;19.148;2023-03-01T13:56:12;6.97;;;2.65;;
76978;SDS011;65911;47.502;19.148;2023-03-01T13:59:23;11.85;;;3.05;;
76978;SDS011;65911;47.502;19.148;2023-03-01T14:02:28;5.10;;;2.60;;
76978;SDS011;65911;47.502;19.148;2023-03-01T14:05:30;7.78;;;2.90;;
76978;SDS011;65911;47.502;19.148;2023-03-01T14:08:34;5.38;;;2.67;;
76978;SDS011;65911;47.502;19.148;2023-03-01T14:15:04;4.33;;;2.80;;
76978;SDS011;65911;47.502;19.148;2023-03-01T14:18:30;6.80;;;2.80;;
76978;SDS011;65911;47.502;19.148;2023-03-01T14:21:38;4.13;;;2.72;;
76978;SDS011;65911;47.502;19.148;2023-03-01T14:24:44;5.47;;;2.40;;
76978;SDS011;65911;47.502;19.148;2023-03-01T14:28:32;3.45;;;2.42;;
76978;SDS011;65911;47.502;19.148;2023-03-01T14:34:45;4.30;;;2.13;;
76978;SDS011;65911;47.502;19.148;2023-03-01T14:37:49;3.42;;;2.03;;
76978;SDS011;65911;47.502;19.148;2023-03-01T14:40:52;4.82;;;2.70;;
76978;SDS011;65911;47.502;19.148;2023-03-01T14:44:06;6.35;;;2.78;;
76978;SDS011;65911;47.502;19.148;2023-03-01T14:47:11;4.83;;;2.53;;
76978;SDS011;65911;47.502;19.148;2023-03-01T14:50:19;4.00;;;2.85;;
76978;SDS011;65911;47.502;19.148;2023-03-01T14:53:25;5.15;;;2.42;;
76978;SDS011;65911;47.502;19.148;2023-03-01T14:56:29;5.80;;;2.73;;
76978;SDS011;65911;47.502;19.148;2023-03-01T14:59:45;4.88;;;2.60;;
76978;SDS011;65911;47.502;19.148;2023-03-01T15:02:53;4.60;;;2.88;;
76978;SDS011;65911;47.502;19.148;2023-03-01T15:05:57;5.47;;;2.53;;
76978;SDS011;65911;47.502;19.148;2023-03-01T15:08:59;5.40;;;2.78;;
76978;SDS011;65911;47.502;19.148;2023-03-01T15:12:23;5.32;;;2.55;;
76978;SDS011;65911;47.502;19.148;2023-03-01T15:15:35;4.15;;;2.65;;
76978;SDS011;65911;47.502;19.148;2023-03-01T15:18:46;5.37;;;3.30;;
76978;SDS011;65911;47.502;19.148;2023-03-01T15:21:50;4.18;;;2.60;;
76978;SDS011;65911;47.502;19.148;2023-03-01T15:24:53;4.88;;;2.80;;
76978;SDS011;65911;47.502;19.148;2023-03-01T15:27:56;7.37;;;3.10;;
76978;SDS011;65911;47.502;19.148;2023-03-01T15:31:01;5.85;;;2.83;;
76978;SDS011;65911;47.502;19.148;2023-03-01T15:34:10;4.45;;;3.03;;
76978;SDS011;65911;47.502;19.148;2023-03-01T15:40:48;7.18;;;2.92;;
76978;SDS011;65911;47.502;19.148;2023-03-01T15:43:51;6.30;;;3.05;;
76978;SDS011;65911;47.502;19.148;2023-03-01T15:46:57;4.00;;;3.00;;
76978;SDS011;65911;47.502;19.148;2023-03-01T15:50:00;6.20;;;2.97;;
76978;SDS011;65911;47.502;19.148;2023-03-01T15:53:07;5.30;;;2.90;;
76978;SDS011;65911;47.502;19.148;2023-03-01T15:56:13;7.90;;;3.10;;
76978;SDS011;65911;47.502;19.148;2023-03-01T15:59:16;6.20;;;3.20;;
76978;SDS011;65911;47.502;19.148;2023-03-01T16:02:19;5.13;;;3.05;;
76978;SDS011;65911;47.502;19.148;2023-03-01T16:05:27;5.95;;;3.00;;
76978;SDS011;65911;47.502;19.148;2023-03-01T16:08:30;9.00;;;3.22;;
76978;SDS011;65911;47.502;19.148;2023-03-01T16:11:32;7.85;;;3.15;;
76978;SDS011;65911;47.502;19.148;2023-03-01T16:14:35;6.65;;;3.25;;
76978;SDS011;65911;47.502;19.148;2023-03-01T16:17:38;6.47;;;3.30;;
76978;SDS011;65911;47.502;19.148;2023-03-01T16:20:40;7.60;;;3.40;;
76978;SDS011;65911;47.502;19.148;2023-03-01T16:23:45;5.90;;;3.10;;
76978;SDS011;65911;47.502;19.148;2023-03-01T16:26:48;5.78;;;3.17;;
76978;SDS011;65911;47.502;19.148;2023-03-01T16:29:50;8.40;;;3.10;;
76978;SDS011;65911;47.502;19.148;2023-03-01T16:32:52;4.78;;;2.88;;
76978;SDS011;65911;47.502;19.148;2023-03-01T16:35:55;6.03;;;3.40;;
76978;SDS011;65911;47.502;19.148;2023-03-01T16:38:58;7.45;;;3.08;;
76978;SDS011;65911;47.502;19.148;2023-03-01T16:42:02;5.28;;;3.05;;
76978;SDS011;65911;47.502;19.148;2023-03-01T16:45:04;5.38;;;3.05;;
76978;SDS011;65911;47.502;19.148;2023-03-01T16:48:23;12.07;;;4.63;;
76978;SDS011;65911;47.502;19.148;2023-03-01T16:51:25;11.83;;;4.50;;
76978;SDS011;65911;47.502;19.148;2023-03-01T16:54:30;8.88;;;5.03;;
76978;SDS011;65911;47.502;19.148;2023-03-01T16:57:36;10.82;;;3.92;;
76978;SDS011;65911;47.502;19.148;2023-03-01T17:00:39;11.70;;;4.67;;
76978;SDS011;65911;47.502;19.148;2023-03-01T17:03:41;8.88;;;4.60;;
76978;SDS011;65911;47.502;19.148;2023-03-01T17:06:44;13.23;;;5.18;;
76978;SDS011;65911;47.502;19.148;2023-03-01T17:09:48;8.73;;;4.28;;
76978;SDS011;65911;47.502;19.148;2023-03-01T17:12:50;11.95;;;4.53;;
76978;SDS011;65911;47.502;19.148;2023-03-01T17:15:53;14.10;;;5.28;;
76978;SDS011;65911;47.502;19.148;2023-03-01T17:18:55;15.57;;;5.00;;
76978;SDS011;65911;47.502;19.148;2023-03-01T17:21:57;10.13;;;5.10;;
76978;SDS011;65911;47.502;19.148;2023-03-01T17:25:00;15.15;;;5.20;;
76978;SDS011;65911;47.502;19.148;2023-03-01T17:28:02;12.63;;;4.75;;
76978;SDS011;65911;47.502;19.148;2023-03-01T17:31:05;11.53;;;5.30;;
76978;SDS011;65911;47.502;19.148;2023-03-01T17:34:08;14.65;;;5.53;;
76978;SDS011;65911;47.502;19.148;2023-03-01T17:37:10;12.20;;;5.13;;
76978;SDS011;65911;47.502;19.148;2023-03-01T17:40:12;12.55;;;5.13;;
76978;SDS011;65911;47.502;19.148;2023-03-01T17:43:15;11.07;;;5.40;;
76978;SDS011;65911;47.502;19.148;2023-03-01T17:46:17;10.85;;;5.32;;
76978;SDS011;65911;47.502;19.148;2023-03-01T17:49:20;13.50;;;5.13;;
76978;SDS011;65911;47.502;19.148;2023-03-01T17:52:22;15.17;;;5.20;;
76978;SDS011;65911;47.502;19.148;2023-03-01T17:55:24;11.45;;;5.05;;
76978;SDS011;65911;47.502;19.148;2023-03-01T17:58:27;14.77;;;5.53;;
76978;SDS011;65911;47.502;19.148;2023-03-01T18:01:29;14.77;;;5.53;;
76978;SDS011;65911;47.502;19.148;2023-03-01T18:04:32;10.45;;;5.63;;
76978;SDS011;65911;47.502;19.148;2023-03-01T18:07:34;14.02;;;5.93;;
76978;SDS011;65911;47.502;19.148;2023-03-01T18:10:37;13.20;;;7.07;;
76978;SDS011;65911;47.502;19.148;2023-03-01T18:13:39;10.85;;;6.35;;
76978;SDS011;65911;47.502;19.148;2023-03-01T18:16:41;14.00;;;6.90;;
76978;SDS011;65911;47.502;19.148;2023-03-01T18:19:44;15.98;;;7.32;;
76978;SDS011;65911;47.502;19.148;2023-03-01T18:22:46;16.47;;;7.30;;
76978;SDS011;65911;47.502;19.148;2023-03-01T18:25:49;16.50;;;8.30;;
76978;SDS011;65911;47.502;19.148;2023-03-01T18:28:54;16.70;;;7.88;;
76978;SDS011;65911;47.502;19.148;2023-03-01T18:31:59;17.63;;;8.10;;
76978;SDS011;65911;47.502;19.148;2023-03-01T18:35:01;17.75;;;8.07;;
76978;SDS011;65911;47.502;19.148;2023-03-01T18:38:03;20.73;;;8.52;;
76978;SDS011;65911;47.502;19.148;2023-03-01T18:41:05;17.23;;;8.60;;
76978;SDS011;65911;47.502;19.148;2023-03-01T18:44:08;18.42;;;9.63;;
76978;SDS011;65911;47.502;19.148;2023-03-01T18:47:11;15.85;;;8.82;;
76978;SDS011;65911;47.502;19.148;2023-03-01T18:50:15;17.65;;;10.00;;
76978;SDS011;65911;47.502;19.148;2023-03-01T18:53:18;19.87;;;9.67;;
76978;SDS011;65911;47.502;19.148;2023-03-01T18:56:20;19.80;;;10.27;;
76978;SDS011;65911;47.502;19.148;2023-03-01T18:59:22;17.75;;;9.95;;
76978;SDS011;65911;47.502;19.148;2023-03-01T19:02:25;19.97;;;9.90;;
76978;SDS011;65911;47.502;19.148;2023-03-01T19:05:27;20.00;;;9.50;;
76978;SDS011;65911;47.502;19.148;2023-03-01T19:08:30;18.02;;;9.18;;
76978;SDS011;65911;47.502;19.148;2023-03-01T19:11:32;16.17;;;9.18;;
76978;SDS011;65911;47.502;19.148;2023-03-01T19:14:36;19.02;;;9.50;;
76978;SDS011;65911;47.502;19.148;2023-03-01T19:17:38;18.63;;;9.30;;
76978;SDS011;65911;47.502;19.148;2023-03-01T19:20:40;17.83;;;9.35;;
76978;SDS011;65911;47.502;19.148;2023-03-01T19:23:43;17.70;;;9.07;;
76978;SDS011;65911;47.502;19.148;2023-03-01T19:26:45;20.27;;;9.48;;
76978;SDS011;65911;47.502;19.148;2023-03-01T19:29:47;20.42;;;9.65;;
76978;SDS011;65911;47.502;19.148;2023-03-01T19:32:49;20.03;;;9.20;;
76978;SDS011;65911;47.502;19.148;2023-03-01T19:35:53;22.95;;;9.82;;
76978;SDS011;65911;47.502;19.148;2023-03-01T19:38:58;17.33;;;9.63;;
76978;SDS011;65911;47.502;19.148;2023-03-01T19:42:02;20.50;;;9.45;;
76978;SDS011;65911;47.502;19.148;2023-03-01T19:45:04;19.20;;;9.73;;
76978;SDS011;65911;47.502;19.148;2023-03-01T19:48:07;22.55;;;9.95;;
76978;SDS011;65911;47.502;19.148;2023-03-01T19:51:09;21.83;;;10.15;;
76978;SDS011;65911;47.502;19.148;2023-03-01T19:54:12;22.13;;;10.33;;
76978;SDS011;65911;47.502;19.148;2023-03-01T19:57:15;18.88;;;10.30;;
76978;SDS011;65911;47.502;19.148;2023-03-01T20:00:20;19.58;;;11.02;;
76978;SDS011;65911;47.502;19.148;2023-03-01T20:03:24;18.27;;;10.00;;
76978;SDS011;65911;47.502;19.148;2023-03-01T20:06:27;19.65;;;10.15;;